Flight Track Log - Related Links

Times and Time Zones

All times are in EDT time to prevent confusion due to time zone crossing. See the EGF4039 flight status page for this flight to view local times or setup timezone preferences in your user account.

Time Position Orientation Groundspeed Altitude Reporting Facility
EDT Latitude Longitude Course Direction KTS MPH feet Rate Location/Type
Wed 10:09:30 PM 42.5378 -92.3661 97° East 156 180 2,400  Level Chicago Center
Wed 10:10:31 PM 42.5106 -92.3083 123° Southeast 211 243 4,800 2,049 Climbing Chicago Center
Wed 10:11:33 PM 42.5069 -92.2211 93° East 223 257 6,600 1,951 Climbing Chicago Center
Wed 10:12:34 PM 42.5017 -92.1219 94° East 244 281 8,800 1,869 Climbing Chicago Center
Wed 10:13:00 PM 42.4901 -91.7570 97° East  Level FlightAware Approximate
Wed 10:13:35 PM 42.4950 -92.0122 95° East 271 312 10,400  Level Chicago Center
Wed 10:14:00 PM 42.4828 -91.6278 97° East  Level FlightAware Approximate
Wed 10:14:37 PM 42.4844 -91.8644 95° East 312 359 12,300  Level Chicago Center
Wed 10:15:38 PM 42.4753 -91.7378 96° East 335 386 14,200 1,756 Climbing Chicago Center
Wed 10:16:40 PM 42.4767 -91.6133 89° East 337 388 15,900 1,463 Climbing Chicago Center
Wed 10:17:41 PM 42.4836 -91.4806 86° East 356 410 17,200 1,171 Climbing Chicago Center
Wed 10:18:43 PM 42.4897 -91.3372 87° East 382 440 18,300 1,122 Climbing Chicago Center
Wed 10:19:44 PM 42.4967 -91.1536 87° East 414 476 19,500 1,122 Climbing Chicago Center
Wed 10:20:46 PM 42.5019 -90.9922 87° East 431 496 20,600 1,171 Climbing Chicago Center
Wed 10:21:47 PM 42.5089 -90.8247 87° East 447 514 21,900 1,180 Climbing Chicago Center
Wed 10:22:48 PM 42.5142 -90.6600 87° East 445 512 23,000 537 Climbing Chicago Center
Wed 10:23:50 PM 42.5183 -90.4869 88° East 461 531 23,000  Level Chicago Center
Wed 10:24:51 PM 42.5250 -90.3092 87° East 474 545 23,000  Level Chicago Center
Wed 10:25:53 PM 42.5314 -90.1308 87° East 478 550 23,000 -390 Level Chicago Center
Wed 10:26:54 PM 42.5372 -89.9178 88° East 474 545 22,200 -1,328 Descending Chicago Center
Wed 10:27:55 PM 42.5419 -89.7469 88° East 470 541 20,300 -1,869 Descending Chicago Center
Wed 10:28:56 PM 42.5472 -89.5769 88° East 455 524 18,400 -1,902 Descending Chicago Center
Wed 10:29:58 PM 42.5511 -89.4133 88° East 439 505 16,400 -1,854 Descending Chicago Center
Wed 10:30:59 PM 42.5536 -89.2492 89° East 437 503 14,600 -1,122 Descending Chicago Center
Wed 10:32:01 PM 42.5531 -89.0711 90° East 408 470 14,100 -683 Descending Chicago Center
Wed 10:33:02 PM 42.5172 -88.9642 114° Southeast 314 361 13,200 -1,082 Descending Chicago Center
Wed 10:34:03 PM 42.5186 -88.8508 89° East 304 350 11,900 -1,220 Descending Chicago Center
Wed 10:35:05 PM 42.4997 -88.7569 105° East 260 299 10,700 -1,268 Descending Chicago Center
Wed 10:36:06 PM 42.4583 -88.6719 123° Southeast 268 308 9,300 -787 Descending Chicago Center
Wed 10:37:07 PM 42.4183 -88.5911 124° Southeast 261 300 9,100 -98 Descending Chicago Center
Wed 10:38:09 PM 42.3792 -88.5083 123° Southeast 261 300 9,100 -49 Level Chicago Center
Wed 10:39:10 PM 42.3317 -88.4489 137° Southeast 251 289 9,000 -49 Descending Chicago Center
Wed 10:40:11 PM 42.2656 -88.4569 185° South 206 237 9,000 -49 Level Chicago Center
Wed 10:41:13 PM 42.2075 -88.4639 185° South 208 239 8,900 -488 Descending Chicago Center
Wed 10:42:14 PM 42.1500 -88.4686 183° South 208 239 8,000 -541 Descending Chicago Center
Wed 10:43:15 PM 42.0958 -88.4758 186° South 200 230 7,800 -439 Descending Chicago Center
Wed 10:44:17 PM 42.0453 -88.4969 197° South 192 221 7,100 -341 Descending Chicago Center
Wed 10:45:18 PM 41.9944 -88.5175 197° South 196 226 7,100 -197 Level Chicago Center
Wed 10:46:19 PM 41.9636 -88.4708 132° Southeast 214 246 6,700 -927 Descending Chicago Center
Wed 10:47:21 PM 41.9936 -88.4053 58° Northeast 205 236 5,200 -829 Descending Chicago Center
Wed 10:48:22 PM 41.9825 -88.3472 104° East 187 215 5,000 -98 Descending Chicago Center
Wed 10:49:24 PM 41.9672 -88.2858 108° East 184 212 5,000  Level Chicago Center
Wed 10:50:25 PM 41.9675 -88.2203 90° East 175 201 5,000 -537 Level Chicago Center
Wed 10:51:27 PM 41.9678 -88.1514 90° East 180 207 3,900 -1,037 Descending Chicago Center
Wed 10:51:46 PM 41.9667 -88.1167 92° East 175 201 3,600 -947 Descending Chicago TRACON

Login

Don't have an account? Register now (free) for customized features, flight alerts, and more!